Time;durP1;ratioP1;P1;durP2;ratioP2;P2;SDS_P1;SDS_P2;PMS_P1;PMS_P2;Temp;Humidity;BMP_temperature;BMP_pressure;BME280_temperature;BME280_humidity;BME280_pressure;Samples;Min_cycle;Max_cycle;Signal;HPM_P1;HPM_P2
2022/03/15 00:01:32;;;;;;;20.15;18.15;;;;;;;8.97;58.52;103170.50;4987993;28;20740;-83
2022/03/15 00:03:59;;;;;;;22.58;18.52;;;;;;;8.97;58.40;103174.94;4990803;28;20054;-81
2022/03/15 00:06:25;;;;;;;22.75;17.70;;;;;;;8.85;58.55;103162.22;4988260;28;20050;-83
2022/03/15 00:08:52;;;;;;;19.95;17.83;;;;;;;8.93;58.72;103173.34;4989336;28;20129;-82
2022/03/15 00:11:19;;;;;;;19.50;17.42;;;;;;;8.68;59.09;103133.75;4989097;28;20050;-82
2022/03/15 00:13:47;;;;;;;18.60;16.70;;;;;;;8.75;58.53;103151.97;4990452;28;20516;-82
2022/03/15 00:16:14;;;;;;;20.58;17.05;;;;;;;8.68;58.61;103147.00;4973118;28;20477;-82
2022/03/15 00:18:41;;;;;;;23.05;18.95;;;;;;;8.58;58.49;103114.72;4976049;28;20497;-82
2022/03/15 00:21:10;;;;;;;19.67;17.65;;;;;;;8.74;58.60;103137.03;4981156;28;20081;-83
2022/03/15 00:23:37;;;;;;;18.65;16.67;;;;;;;8.84;58.51;103156.06;4977844;28;20062;-82
2022/03/15 00:26:04;;;;;;;21.83;17.65;;;;;;;8.85;58.77;103149.81;4972816;28;20199;-81
2022/03/15 00:28:31;;;;;;;23.70;18.25;;;;;;;8.92;58.93;103168.97;4974871;28;20050;-81
2022/03/15 00:30:58;;;;;;;20.00;17.38;;;;;;;8.86;58.88;103167.44;4983281;28;20051;-82
2022/03/15 00:33:25;;;;;;;21.63;17.83;;;;;;;8.10;58.41;103037.19;4979771;28;20061;-82
2022/03/15 00:35:53;;;;;;;22.38;19.27;;;;;;;9.01;58.52;103171.25;4969338;28;20105;-81
2022/03/15 00:38:21;;;;;;;22.25;17.95;;;;;;;9.17;57.22;103167.03;4969729;28;20498;-83
2022/03/15 00:40:48;;;;;;;19.38;17.15;;;;;;;8.91;58.61;103148.72;4968619;28;20070;-83
2022/03/15 00:43:15;;;;;;;22.45;19.15;;;;;;;8.34;57.95;103059.16;4970145;28;20141;-82
2022/03/15 00:45:42;;;;;;;23.45;18.00;;;;;;;8.82;58.18;103149.09;4968528;28;20508;-83
2022/03/15 00:48:09;;;;;;;21.80;18.05;;;;;;;8.70;58.79;103140.72;4985194;28;20078;-82
2022/03/15 00:50:39;;;;;;;21.77;18.60;;;;;;;8.65;59.21;103134.75;4969636;28;20482;-80
2022/03/15 00:53:06;;;;;;;19.48;17.50;;;;;;;8.56;59.00;103116.56;4984915;28;20294;-81
2022/03/15 00:55:33;;;;;;;21.88;18.15;;;;;;;8.75;59.08;103162.56;4968176;28;20102;-82
2022/03/15 00:57:59;;;;;;;19.67;16.92;;;;;;;8.21;60.01;103073.81;4968754;28;20153;-83
2022/03/15 01:00:31;;;;;;;23.77;18.20;;;;;;;8.69;59.69;103149.59;4968644;28;20457;-83
2022/03/15 01:02:58;;;;;;;18.55;16.73;;;;;;;8.24;59.58;103089.56;4967419;28;20213;-82
2022/03/15 01:05:25;;;;;;;20.58;18.08;;;;;;;8.46;59.71;103112.56;4984155;28;20054;-81
2022/03/15 01:07:52;;;;;;;20.15;17.95;;;;;;;8.63;59.34;103155.13;4967532;28;20515;-82
2022/03/15 01:10:19;;;;;;;20.80;18.52;;;;;;;8.42;59.41;103118.91;4968175;28;20556;-82
2022/03/15 01:12:45;;;;;;;21.88;17.88;;;;;;;8.66;58.96;103170.88;4967617;28;20073;-82
2022/03/15 01:15:12;;;;;;;19.75;17.67;;;;;;;8.59;58.79;103160.59;4976001;28;20133;-81
2022/03/15 01:17:38;;;;;;;23.63;18.33;;;;;;;7.92;59.14;103045.88;4986900;28;20055;-82
2022/03/15 01:20:07;;;;;;;21.55;18.25;;;;;;;8.66;58.93;103165.59;4987982;28;20420;-82
2022/03/15 01:22:34;;;;;;;22.17;19.00;;;;;;;8.68;59.02;103163.75;4988156;28;20290;-83
2022/03/15 01:25:01;;;;;;;22.23;17.75;;;;;;;8.50;59.64;103133.56;4986972;28;20456;-82
2022/03/15 01:27:28;;;;;;;26.55;18.15;;;;;;;8.33;58.80;103077.78;4987315;28;20108;-82
2022/03/15 01:29:56;;;;;;;19.38;17.38;;;;;;;8.65;58.81;103116.22;4986629;28;20145;-83
2022/03/15 01:32:23;;;;;;;22.25;18.08;;;;;;;8.56;58.05;103090.09;4986670;28;20068;-82
2022/03/15 01:34:49;;;;;;;19.60;17.35;;;;;;;8.61;58.67;103117.25;4987102;28;20050;-82
2022/03/15 01:37:16;;;;;;;22.48;18.25;;;;;;;8.72;58.74;103149.47;4986940;28;20129;-82
2022/03/15 01:39:42;;;;;;;19.98;17.35;;;;;;;8.53;58.90;103120.22;4985636;28;20132;-83
2022/03/15 01:42:09;;;;;;;20.65;18.48;;;;;;;8.82;58.37;103149.09;4986326;28;20109;-82
2022/03/15 01:44:37;;;;;;;25.60;18.30;;;;;;;8.46;58.20;103079.03;4986681;28;20145;-81
2022/03/15 01:47:04;;;;;;;20.88;18.20;;;;;;;8.66;59.32;103136.44;4986957;28;20120;-82
2022/03/15 01:49:30;;;;;;;22.33;18.63;;;;;;;8.41;59.46;103091.59;4986487;28;20078;-82
2022/03/15 01:51:57;;;;;;;21.17;18.98;;;;;;;8.39;59.32;103109.28;4986992;28;20575;-83
2022/03/15 01:54:24;;;;;;;20.33;18.08;;;;;;;7.89;59.65;103019.53;4986863;28;20137;-82
2022/03/15 01:56:51;;;;;;;23.23;19.58;;;;;;;8.47;59.86;103127.53;4986532;28;20371;-81
2022/03/15 01:59:17;;;;;;;21.77;19.48;;;;;;;8.46;59.42;103120.53;4986646;28;20065;-82
2022/03/15 02:01:46;;;;;;;20.50;18.15;;;;;;;8.48;59.52;103116.03;4991931;28;20054;-82
2022/03/15 02:04:15;;;;;;;23.52;18.52;;;;;;;8.43;60.03;103118.00;4996913;28;20213;-82
2022/03/15 02:06:42;;;;;;;19.55;17.63;;;;;;;8.11;59.98;103062.75;4988086;28;20133;-82
2022/03/15 02:09:13;;;;;;;22.23;19.13;;;;;;;8.45;59.75;103118.81;5003006;28;20049;-82
2022/03/15 02:11:44;;;;;;;22.70;18.98;;;;;;;8.30;59.88;103104.34;4987640;28;20062;-81
2022/03/15 02:14:11;;;;;;;20.27;17.98;;;;;;;7.80;59.86;103012.81;4986330;28;20058;-82
2022/03/15 02:16:38;;;;;;;22.17;18.83;;;;;;;8.28;60.19;103092.97;4967259;28;20306;-82
2022/03/15 02:19:05;;;;;;;23.63;19.42;;;;;;;8.29;60.20;103092.91;4967900;28;20097;-80
2022/03/15 02:21:34;;;;;;;20.70;18.58;;;;;;;8.12;60.17;103058.31;4968617;28;20359;-80
2022/03/15 02:24:01;;;;;;;20.40;18.42;;;;;;;7.74;60.07;103009.53;4966945;28;20125;-82
2022/03/15 02:26:27;;;;;;;20.80;18.23;;;;;;;8.13;60.30;103075.88;4969981;28;20551;-80
2022/03/15 02:28:54;;;;;;;21.77;18.88;;;;;;;8.26;60.56;103108.03;4977223;28;20477;-83
2022/03/15 02:31:21;;;;;;;21.35;19.10;;;;;;;8.15;59.95;103089.94;4973533;28;20589;-80
2022/03/15 02:33:48;;;;;;;22.10;18.75;;;;;;;8.13;60.53;103081.19;4968076;28;20146;-82
2022/03/15 02:36:16;;;;;;;20.33;18.33;;;;;;;7.98;60.97;103066.78;4966813;28;20042;-82
2022/03/15 02:38:43;;;;;;;21.33;19.00;;;;;;;7.89;60.57;103062.72;4966667;28;20496;-82
2022/03/15 02:41:10;;;;;;;21.42;19.15;;;;;;;8.00;60.88;103080.81;4966502;28;20129;-82
2022/03/15 02:43:38;;;;;;;20.10;17.85;;;;;;;8.02;60.79;103078.13;4966429;28;20057;-81
2022/03/15 02:46:04;;;;;;;20.15;17.88;;;;;;;8.03;61.33;103085.13;4967071;28;20130;-81
2022/03/15 02:48:31;;;;;;;24.10;18.55;;;;;;;8.15;61.13;103105.81;4967407;28;20058;-81
2022/03/15 02:51:00;;;;;;;21.20;18.30;;;;;;;7.49;60.75;102999.91;4966521;28;20061;-81
2022/03/15 02:53:28;;;;;;;24.40;19.52;;;;;;;8.03;60.79;103087.75;4966866;28;20050;-81
2022/03/15 02:55:54;;;;;;;22.05;19.67;;;;;;;7.82;61.02;103045.34;4966876;28;20057;-82
2022/03/15 02:58:21;;;;;;;21.40;18.75;;;;;;;8.06;60.65;103090.31;4966125;28;20063;-81
2022/03/15 03:00:48;;;;;;;19.23;17.23;;;;;;;8.09;61.52;103096.31;4968133;28;20050;-82
2022/03/15 03:03:15;;;;;;;22.13;19.35;;;;;;;8.09;61.59;103101.63;4967510;28;20068;-81
2022/03/15 03:05:41;;;;;;;20.08;18.00;;;;;;;8.08;61.25;103104.31;4966361;28;20070;-81
2022/03/15 03:08:08;;;;;;;20.63;18.40;;;;;;;8.10;61.21;103107.78;4965864;28;20134;-81
2022/03/15 03:10:35;;;;;;;19.05;17.10;;;;;;;8.01;61.19;103097.53;4965313;28;20058;-83
2022/03/15 03:13:02;;;;;;;23.23;18.77;;;;;;;8.17;60.16;103113.69;4966022;28;20114;-81
2022/03/15 03:15:32;;;;;;;21.08;18.92;;;;;;;7.59;60.00;103011.00;4977541;28;20042;-82
2022/03/15 03:17:59;;;;;;;24.13;20.00;;;;;;;7.78;60.10;103048.19;4985324;28;20269;-81
2022/03/15 03:20:26;;;;;;;21.15;19.05;;;;;;;8.15;59.64;103116.38;4986704;28;20058;-82
2022/03/15 03:22:53;;;;;;;21.77;18.75;;;;;;;7.99;60.00;103078.25;4985286;28;20129;-83
2022/03/15 03:25:20;;;;;;;20.50;18.30;;;;;;;8.14;60.16;103114.69;4985958;28;20078;-81
2022/03/15 03:27:47;;;;;;;22.98;18.85;;;;;;;7.94;60.00;103067.84;4987185;28;20104;-81
2022/03/15 03:30:15;;;;;;;20.02;18.02;;;;;;;8.07;60.71;103102.59;4985134;28;20305;-82
2022/03/15 03:32:41;;;;;;;22.95;19.17;;;;;;;7.99;60.49;103096.75;4985118;28;20054;-81
2022/03/15 03:35:09;;;;;;;21.70;19.33;;;;;;;8.12;60.75;103108.56;4985891;28;20221;-82
2022/03/15 03:37:35;;;;;;;19.60;17.55;;;;;;;7.94;59.76;103075.75;5000128;28;20089;-82
2022/03/15 03:40:09;;;;;;;24.50;18.73;;;;;;;8.01;59.88;103086.94;4985211;28;20050;-83
2022/03/15 03:42:37;;;;;;;22.80;18.92;;;;;;;7.69;59.91;103049.38;4986735;28;20145;-82
2022/03/15 03:45:05;;;;;;;20.90;18.77;;;;;;;7.80;59.52;103063.06;4985334;28;20137;-82
2022/03/15 03:47:31;;;;;;;20.02;17.98;;;;;;;8.03;60.28;103103.63;4984923;28;20065;-83
2022/03/15 03:49:58;;;;;;;19.10;16.83;;;;;;;8.11;59.91;103098.94;4985328;28;20129;-82
2022/03/15 03:52:25;;;;;;;20.40;18.33;;;;;;;7.99;60.44;103094.09;4986270;28;20493;-82
2022/03/15 03:54:52;;;;;;;23.70;19.30;;;;;;;7.73;60.47;103052.78;4984790;28;20109;-82
2022/03/15 03:57:19;;;;;;;21.60;17.00;;;;;;;7.55;59.88;103012.00;4985206;28;20132;-81
2022/03/15 03:59:46;;;;;;;20.77;18.67;;;;;;;7.98;60.10;103081.78;4985485;28;20059;-82
2022/03/15 04:02:13;;;;;;;20.63;18.42;;;;;;;7.23;59.20;102906.63;5001124;28;20141;-83
2022/03/15 04:04:40;;;;;;;20.52;18.40;;;;;;;8.24;59.24;103094.00;4985352;28;20086;-82
2022/03/15 04:07:11;;;;;;;21.05;18.58;;;;;;;8.03;60.03;103079.81;4984785;28;20072;-81
2022/03/15 04:09:39;;;;;;;20.73;18.63;;;;;;;7.92;60.24;103072.31;4984918;28;20348;-81
2022/03/15 04:12:09;;;;;;;19.73;17.65;;;;;;;7.34;59.96;102974.91;4984241;28;20081;-82
2022/03/15 04:14:36;;;;;;;21.85;19.50;;;;;;;8.20;59.96;103103.84;4981315;28;20078;-82
2022/03/15 04:17:03;;;;;;;21.05;18.20;;;;;;;7.78;60.43;103029.66;4965140;28;20078;-81
2022/03/15 04:19:31;;;;;;;19.23;17.23;;;;;;;8.24;60.06;103096.66;4965573;28;20061;-81
2022/03/15 04:21:58;;;;;;;21.58;19.02;;;;;;;8.31;60.37;103106.94;4965948;28;20650;-81
2022/03/15 04:24:25;;;;;;;20.05;17.88;;;;;;;8.11;59.90;103077.75;4966542;28;20047;-81
2022/03/15 04:26:52;;;;;;;24.40;18.15;;;;;;;7.96;59.97;103041.31;4965493;28;20146;-82
2022/03/15 04:29:19;;;;;;;23.55;18.67;;;;;;;8.29;60.87;103108.78;4965480;28;20324;-82
2022/03/15 04:31:46;;;;;;;20.80;18.80;;;;;;;8.26;60.38;103086.88;4967129;28;20159;-82
2022/03/15 04:34:12;;;;;;;21.83;18.02;;;;;;;8.40;60.28;103099.56;4970111;28;20055;-83
2022/03/15 04:36:41;;;;;;;20.73;17.38;;;;;;;8.27;60.26;103078.84;4972745;28;20142;-81
2022/03/15 04:39:07;;;;;;;20.48;18.27;;;;;;;8.29;60.25;103084.94;4972353;28;20050;-83
2022/03/15 04:41:34;;;;;;;20.50;18.45;;;;;;;8.10;60.22;103054.84;4971033;28;20047;-80
2022/03/15 04:44:01;;;;;;;20.63;18.45;;;;;;;7.86;59.83;103009.94;4968513;28;20046;-81
2022/03/15 04:46:27;;;;;;;22.85;19.20;;;;;;;8.56;59.62;103105.97;4968417;28;20051;-81
2022/03/15 04:48:55;;;;;;;21.85;19.38;;;;;;;8.43;59.48;103086.25;4969891;28;20113;-81
2022/03/15 04:51:23;;;;;;;21.65;18.60;;;;;;;8.27;59.36;103073.56;4969941;28;20344;-82
2022/03/15 04:53:52;;;;;;;23.70;18.67;;;;;;;8.49;59.07;103101.84;4968650;28;20457;-81
2022/03/15 04:56:18;;;;;;;21.77;19.08;;;;;;;8.51;59.22;103110.59;4968858;28;20047;-81
2022/03/15 04:58:45;;;;;;;21.17;18.40;;;;;;;8.16;59.56;103062.56;4968789;28;20138;-82
2022/03/15 05:01:12;;;;;;;22.70;18.88;;;;;;;8.15;59.02;103068.75;4968481;28;20060;-82
2022/03/15 05:03:39;;;;;;;20.75;18.23;;;;;;;8.26;59.02;103090.38;4967767;28;20482;-82
2022/03/15 05:06:06;;;;;;;19.75;17.75;;;;;;;8.29;58.80;103103.47;4984193;28;20047;-81
2022/03/15 05:08:33;;;;;;;20.85;18.63;;;;;;;8.39;58.78;103111.06;4968113;28;20140;-83
2022/03/15 05:11:08;;;;;;;21.65;18.67;;;;;;;8.21;59.20;103105.56;4968193;28;20053;-81
2022/03/15 05:13:46;;;;;;;21.08;17.92;;;;;;;8.19;59.58;103125.09;4967844;28;20209;-84
2022/03/15 05:16:21;;;;;;;20.90;17.45;;;;;;;8.06;59.34;103116.75;4984372;28;20503;-82
2022/03/15 05:18:52;;;;;;;21.33;17.92;;;;;;;8.07;59.45;103129.06;4987642;28;20286;-81
2022/03/15 05:21:24;;;;;;;20.63;18.30;;;;;;;7.99;59.49;103107.34;5003982;28;20038;-82
2022/03/15 05:23:53;;;;;;;20.65;17.80;;;;;;;7.96;60.07;103104.78;5003629;28;20054;-82
2022/03/15 05:26:21;;;;;;;23.58;19.33;;;;;;;8.11;59.91;103122.75;4985732;28;20112;-81
2022/03/15 05:28:49;;;;;;;20.70;18.23;;;;;;;8.10;59.84;103128.94;4987709;28;20058;-82
2022/03/15 05:31:17;;;;;;;21.50;19.20;;;;;;;8.18;59.71;103120.69;4966221;28;20536;-81
2022/03/15 05:33:44;;;;;;;20.50;18.30;;;;;;;8.24;59.13;103120.47;4970776;28;20046;-82
2022/03/15 05:36:11;;;;;;;24.73;18.63;;;;;;;8.09;59.72;103106.06;4971137;28;20111;-82
2022/03/15 05:38:37;;;;;;;24.27;19.13;;;;;;;8.10;60.07;103118.34;4975404;28;20078;-81
2022/03/15 05:41:04;;;;;;;21.40;19.13;;;;;;;7.88;60.13;103087.41;4973862;28;20058;-83
2022/03/15 05:43:51;;;;;;;20.42;18.45;;;;;;;8.13;59.61;103128.81;4967083;28;20059;-83
2022/03/15 05:46:18;;;;;;;21.80;19.27;;;;;;;8.08;59.98;103122.84;4965609;28;20424;-82
2022/03/15 05:48:44;;;;;;;21.40;18.52;;;;;;;7.89;59.75;103096.25;4981695;28;20047;-83
2022/03/15 05:51:11;;;;;;;21.58;19.27;;;;;;;8.12;59.80;103127.09;4966102;28;20059;-82
2022/03/15 05:53:38;;;;;;;23.00;18.92;;;;;;;8.04;59.94;103122.09;4966760;28;20488;-82
2022/03/15 05:56:04;;;;;;;25.67;18.00;;;;;;;8.00;60.12;103117.84;4965842;28;20047;-82
2022/03/15 05:58:31;;;;;;;21.48;19.17;;;;;;;8.01;60.06;103119.59;4966053;28;20271;-83
2022/03/15 06:00:58;;;;;;;23.20;19.75;;;;;;;7.85;59.97;103079.63;4965781;28;20061;-83
2022/03/15 06:03:26;;;;;;;22.70;20.27;;;;;;;7.65;60.10;103053.06;4965234;28;20339;-82
2022/03/15 06:05:53;;;;;;;25.40;20.00;;;;;;;7.66;60.09;103047.72;4964517;28;20539;-83
2022/03/15 06:08:19;;;;;;;26.60;19.02;;;;;;;7.09;59.77;102935.34;4965702;28;20469;-82
2022/03/15 06:10:46;;;;;;;27.40;19.27;;;;;;;8.04;59.94;103090.34;4964791;28;20050;-82
2022/03/15 06:13:13;;;;;;;26.08;19.85;;;;;;;8.22;59.68;103106.44;4966545;28;20051;-82
2022/03/15 06:15:40;;;;;;;21.77;18.70;;;;;;;7.85;59.88;103037.28;4965076;28;20508;-82
2022/03/15 06:18:07;;;;;;;24.45;19.55;;;;;;;8.09;59.34;103085.75;4964824;28;20133;-82
2022/03/15 06:20:35;;;;;;;21.10;19.10;;;;;;;7.57;59.67;102996.97;4964533;28;20086;-83
2022/03/15 06:23:02;;;;;;;20.70;18.17;;;;;;;8.24;59.07;103086.94;4966181;28;20560;-80
2022/03/15 06:25:30;;;;;;;22.10;18.75;;;;;;;8.42;58.79;103093.28;4965185;28;20051;-82
2022/03/15 06:27:57;;;;;;;21.23;18.65;;;;;;;8.33;59.16;103093.66;4965885;28;20495;-83
2022/03/15 06:30:24;;;;;;;20.88;18.35;;;;;;;8.50;59.60;103124.78;4952947;28;20102;-83
2022/03/15 06:32:51;;;;;;;21.60;18.70;;;;;;;8.45;58.99;103109.06;4945844;29;20774;-83
2022/03/15 06:35:19;;;;;;;22.42;20.05;;;;;;;8.54;59.06;103124.59;4946849;28;20055;-82
2022/03/15 06:37:48;;;;;;;25.55;20.20;;;;;;;8.23;59.47;103076.38;4945668;29;20480;-83
2022/03/15 06:40:22;;;;;;;24.88;20.00;;;;;;;8.35;59.65;103095.31;4947221;28;20047;-80
2022/03/15 06:42:50;;;;;;;23.65;19.05;;;;;;;8.53;59.43;103124.66;4968268;28;20049;-82
2022/03/15 06:45:17;;;;;;;22.77;18.35;;;;;;;8.56;59.35;103129.81;4969719;28;20145;-81
2022/03/15 06:47:44;;;;;;;23.38;19.13;;;;;;;8.57;59.47;103139.50;4982014;28;20058;-83
2022/03/15 06:50:12;;;;;;;24.40;19.70;;;;;;;8.47;59.30;103133.72;4964763;28;20143;-82
2022/03/15 06:52:41;;;;;;;25.60;19.60;;;;;;;8.21;59.22;103104.72;4966757;28;20147;-82
2022/03/15 06:55:10;;;;;;;24.27;18.88;;;;;;;8.20;59.83;103109.13;4965175;28;20082;-82
2022/03/15 06:57:37;;;;;;;23.45;19.02;;;;;;;8.40;60.13;103137.53;4965636;28;20070;-83
2022/03/15 07:00:06;;;;;;;23.63;20.23;;;;;;;8.57;59.62;103155.38;4966990;28;20136;-82
2022/03/15 07:02:32;;;;;;;27.77;19.15;;;;;;;8.27;59.34;103100.03;4966545;28;20058;-83
2022/03/15 07:04:59;;;;;;;21.42;19.08;;;;;;;8.57;59.62;103142.16;4983261;28;20058;-83
2022/03/15 07:07:26;;;;;;;22.25;19.83;;;;;;;8.53;59.75;103122.00;4968596;28;20141;-81
2022/03/15 07:09:54;;;;;;;23.85;21.33;;;;;;;8.72;59.47;103144.16;4984155;28;20531;-82
2022/03/15 07:12:22;;;;;;;29.52;21.42;;;;;;;8.77;59.01;103147.50;4965631;28;20364;-80
2022/03/15 07:14:49;;;;;;;25.63;20.67;;;;;;;8.57;58.67;103097.13;4970539;28;20072;-81
2022/03/15 07:17:16;;;;;;;26.30;20.98;;;;;;;8.66;59.31;103112.63;4987285;28;20042;-81
2022/03/15 07:19:43;;;;;;;24.65;21.50;;;;;;;9.00;58.44;103156.25;4985970;28;20062;-82
2022/03/15 07:22:09;;;;;;;24.75;21.05;;;;;;;8.82;59.05;103125.25;4986082;28;20060;-83
2022/03/15 07:24:36;;;;;;;23.33;20.92;;;;;;;9.01;59.34;103155.34;4986217;28;20138;-82
2022/03/15 07:27:03;;;;;;;25.13;21.35;;;;;;;8.85;59.21;103133.91;4986455;28;20185;-82
2022/03/15 07:29:33;;;;;;;25.15;22.02;;;;;;;8.96;59.13;103120.25;4965357;28;20090;-82
2022/03/15 07:31:59;;;;;;;24.17;21.52;;;;;;;9.09;59.19;103136.47;4964538;28;20232;-82
2022/03/15 07:34:26;;;;;;;24.42;21.08;;;;;;;8.88;58.91;103093.19;4965224;28;20089;-83
2022/03/15 07:36:53;;;;;;;26.90;22.15;;;;;;;9.25;58.39;103148.16;4966617;28;20062;-83
2022/03/15 07:39:20;;;;;;;28.05;21.60;;;;;;;8.67;58.35;103049.94;4965459;28;20062;-82
2022/03/15 07:41:47;;;;;;;33.72;22.67;;;;;;;9.09;58.51;103110.84;4966131;28;20134;-82
2022/03/15 07:44:14;;;;;;;26.15;22.75;;;;;;;9.29;58.11;103127.66;4967283;28;20420;-83
2022/03/15 07:46:48;;;;;;;26.60;22.30;;;;;;;9.24;58.23;103111.97;4966726;28;20408;-83
2022/03/15 07:49:17;;;;;;;28.60;23.38;;;;;;;9.35;57.94;103128.28;4968156;28;20148;-82
2022/03/15 07:51:44;;;;;;;29.42;22.83;;;;;;;9.45;57.57;103139.34;4966010;28;20051;-82
2022/03/15 07:54:11;;;;;;;29.63;23.13;;;;;;;9.57;57.40;103151.19;4966328;28;20579;-82
2022/03/15 07:56:38;;;;;;;28.60;25.52;;;;;;;9.55;57.00;103130.03;4967861;28;20047;-82
2022/03/15 07:59:05;;;;;;;28.90;25.80;;;;;;;9.80;56.38;103158.13;4967050;28;20202;-81
2022/03/15 08:01:31;;;;;;;31.27;26.55;;;;;;;9.81;56.50;103157.22;4983286;28;20047;-81
2022/03/15 08:03:58;;;;;;;30.88;27.45;;;;;;;9.34;55.96;103072.66;4966573;28;20496;-80
2022/03/15 08:06:25;;;;;;;30.58;27.48;;;;;;;9.84;55.67;103151.75;4966113;28;20407;-82
2022/03/15 08:08:57;;;;;;;30.35;27.13;;;;;;;9.88;55.90;103171.03;4965664;28;20047;-83
2022/03/15 08:11:24;;;;;;;35.13;27.55;;;;;;;9.91;55.34;103173.56;4983767;28;20074;-81
2022/03/15 08:13:54;;;;;;;33.42;26.83;;;;;;;9.69;55.87;103136.53;4970586;28;20050;-81
2022/03/15 08:16:24;;;;;;;32.28;27.48;;;;;;;9.82;55.33;103158.91;5002793;28;20302;-82
2022/03/15 08:18:53;;;;;;;31.70;28.08;;;;;;;9.92;55.68;103176.13;5004844;28;20107;-81
2022/03/15 08:21:22;;;;;;;33.17;27.27;;;;;;;9.93;55.41;103161.97;4990219;28;20479;-81
2022/03/15 08:23:49;;;;;;;31.95;28.40;;;;;;;9.20;55.04;103037.03;4986253;28;20097;-82
2022/03/15 08:26:19;;;;;;;31.70;27.38;;;;;;;9.41;55.60;103079.41;4971060;28;20082;-81
2022/03/15 08:28:48;;;;;;;35.28;28.25;;;;;;;9.80;55.65;103140.41;4971266;28;20078;-82
2022/03/15 08:31:15;;;;;;;35.53;28.65;;;;;;;10.08;55.34;103180.78;4969723;28;20496;-81
2022/03/15 08:33:44;;;;;;;30.67;27.35;;;;;;;10.18;55.18;103176.75;4971075;28;20129;-82
2022/03/15 08:36:13;;;;;;;32.35;28.13;;;;;;;10.06;55.15;103156.94;4985463;28;20053;-81
2022/03/15 08:38:41;;;;;;;32.22;28.73;;;;;;;10.23;55.44;103174.75;4970088;28;20086;-82
2022/03/15 08:41:08;;;;;;;32.38;28.88;;;;;;;9.51;54.65;103048.91;4970915;28;20059;-82
2022/03/15 08:43:35;;;;;;;30.63;27.60;;;;;;;9.60;54.78;103053.78;4970082;28;20062;-82
2022/03/15 08:46:02;;;;;;;30.77;27.38;;;;;;;9.51;53.93;103009.13;4971017;28;20053;-81
2022/03/15 08:48:29;;;;;;;30.88;27.80;;;;;;;10.50;54.25;103169.94;4971179;28;20051;-82
2022/03/15 08:50:59;;;;;;;32.00;28.27;;;;;;;10.02;53.67;103084.59;4989041;28;20050;-82
2022/03/15 08:53:27;;;;;;;30.83;27.73;;;;;;;9.96;53.74;103062.78;4973839;28;20089;-81
2022/03/15 08:55:55;;;;;;;31.48;28.13;;;;;;;10.60;53.31;103157.94;4971063;28;20086;-82
2022/03/15 08:58:21;;;;;;;33.65;27.85;;;;;;;10.64;53.40;103166.66;4971000;28;20046;-81
2022/03/15 09:00:49;;;;;;;35.42;27.63;;;;;;;10.51;53.18;103123.00;4969195;28;20524;-82
2022/03/15 09:03:16;;;;;;;33.53;29.23;;;;;;;10.71;53.07;103160.09;4970582;28;20059;-81
2022/03/15 09:05:42;;;;;;;32.72;29.42;;;;;;;10.43;53.45;103113.59;4969110;28;20063;-82
2022/03/15 09:08:14;;;;;;;33.95;29.98;;;;;;;10.55;53.36;103114.81;4969513;28;20051;-81
2022/03/15 09:10:42;;;;;;;33.83;30.23;;;;;;;10.39;53.77;103066.91;4969519;28;20055;-81
2022/03/15 09:13:10;;;;;;;34.45;29.80;;;;;;;10.94;52.56;103152.78;4972896;28;20589;-83
2022/03/15 09:15:38;;;;;;;43.45;31.40;;;;;;;9.97;52.37;102988.38;4973326;28;20105;-82
2022/03/15 09:18:05;;;;;;;35.88;29.58;;;;;;;10.62;52.50;103072.88;4972487;28;20058;-81
2022/03/15 09:20:31;;;;;;;34.47;30.75;;;;;;;11.17;52.58;103151.63;4972152;28;20137;-81
2022/03/15 09:22:59;;;;;;;35.15;31.42;;;;;;;11.34;51.96;103155.13;4967956;28;20091;-82
2022/03/15 09:25:26;;;;;;;33.90;30.13;;;;;;;11.33;52.03;103129.50;4970611;28;20051;-82
2022/03/15 09:27:52;;;;;;;35.72;29.92;;;;;;;10.88;51.71;103035.22;4969076;28;20061;-81
2022/03/15 09:30:20;;;;;;;35.67;31.80;;;;;;;10.53;51.36;102969.75;4984807;28;20077;-81
2022/03/15 09:32:46;;;;;;;37.05;32.28;;;;;;;11.76;51.25;103167.13;4968902;28;20058;-82
2022/03/15 09:35:14;;;;;;;34.60;30.90;;;;;;;11.59;50.79;103089.16;4968987;28;20050;-84
2022/03/15 09:37:45;;;;;;;35.70;31.98;;;;;;;11.89;50.53;103123.91;4968485;28;20481;-83
2022/03/15 09:40:12;;;;;;;37.17;31.80;;;;;;;12.12;50.12;103139.50;4968839;28;20118;-83
2022/03/15 09:42:41;;;;;;;41.97;31.00;;;;;;;12.25;50.87;103136.16;4968477;28;20493;-82
2022/03/15 09:45:08;;;;;;;37.92;32.83;;;;;;;12.22;49.42;103125.69;4968164;28;20418;-83
2022/03/15 09:47:36;;;;;;;36.08;32.33;;;;;;;12.25;49.37;103114.84;4968692;28;20051;-81
2022/03/15 09:50:06;;;;;;;34.83;31.13;;;;;;;12.47;49.86;103128.66;4968795;28;20047;-82
2022/03/15 09:52:34;;;;;;;35.70;31.63;;;;;;;12.59;49.96;103130.63;4969416;28;20047;-82
2022/03/15 09:55:02;;;;;;;37.05;33.08;;;;;;;12.70;48.78;103130.03;4968255;28;20113;-81
2022/03/15 09:57:31;;;;;;;35.33;31.70;;;;;;;12.44;49.27;103067.56;4969408;28;20151;-82
2022/03/15 10:00:01;;;;;;;37.08;31.23;;;;;;;12.86;48.67;103119.31;4966782;28;20058;-82
2022/03/15 10:02:28;;;;;;;36.88;31.65;;;;;;;12.85;48.27;103098.94;4963178;28;20532;-82
2022/03/15 10:05:01;;;;;;;35.65;31.63;;;;;;;12.84;48.25;103070.59;4955746;28;20440;-82
2022/03/15 10:07:27;;;;;;;36.85;31.65;;;;;;;13.22;48.35;103099.41;4965414;28;20097;-83
2022/03/15 10:09:54;;;;;;;34.40;30.20;;;;;;;13.41;47.32;103097.38;4965284;28;20081;-82
2022/03/15 10:12:21;;;;;;;31.05;27.85;;;;;;;13.33;45.98;103062.31;4965509;28;20069;-83
2022/03/15 10:14:49;;;;;;;33.15;29.75;;;;;;;13.36;46.42;103061.25;4969750;28;20471;-84
2022/03/15 10:17:16;;;;;;;34.05;30.08;;;;;;;13.53;45.85;103057.53;4966054;28;20057;-84
2022/03/15 10:19:54;;;;;;;32.20;28.83;;;;;;;13.80;44.50;103087.81;4967562;28;20046;-82
2022/03/15 10:22:22;;;;;;;31.50;28.13;;;;;;;14.03;44.98;103106.88;4967161;28;20072;-83
2022/03/15 10:24:50;;;;;;;29.02;26.02;;;;;;;13.35;43.72;102985.72;4966013;28;20053;-83
2022/03/15 10:27:18;;;;;;;35.15;29.38;;;;;;;14.10;45.15;103101.06;4966384;28;20047;-84
2022/03/15 10:29:46;;;;;;;36.00;30.33;;;;;;;14.12;45.11;103068.88;4965989;28;20578;-84
2022/03/15 10:32:14;;;;;;;39.13;31.83;;;;;;;14.01;44.74;103026.00;4966268;28;20113;-85
2022/03/15 10:34:41;;;;;;;34.55;28.80;;;;;;;14.48;44.55;103087.00;4966914;28;20201;-84
2022/03/15 10:37:07;;;;;;;33.38;29.15;;;;;;;14.38;44.22;103056.50;4965767;28;20053;-83
2022/03/15 10:39:34;;;;;;;34.60;29.08;;;;;;;14.70;43.80;103097.13;4965587;28;20053;-85
2022/03/15 10:42:04;;;;;;;32.03;28.83;;;;;;;14.84;43.56;103095.38;4965400;28;20141;-84
2022/03/15 10:44:36;;;;;;;31.95;28.20;;;;;;;14.85;43.06;103089.06;4965842;28;20141;-83
2022/03/15 10:47:12;;;;;;;;;;;;;;;14.71;43.36;103085.50;4981529;28;20109;-84
2022/03/15 10:49:56;;;;;;;33.88;28.95;;;;;;;14.56;43.23;103070.47;4966223;28;20509;-84
2022/03/15 10:52:36;;;;;;;30.30;27.05;;;;;;;14.72;43.37;103076.50;4965164;28;20051;-84
2022/03/15 10:55:25;;;;;;;31.00;27.70;;;;;;;14.70;43.01;103086.44;4966872;28;20129;-84
2022/03/15 10:57:57;;;;;;;33.88;28.20;;;;;;;14.67;43.33;103067.09;4965454;28;20066;-83
2022/03/15 11:00:29;;;;;;;34.33;28.08;;;;;;;14.79;43.47;103076.13;4965127;28;20085;-84
2022/03/15 11:02:57;;;;;;;33.83;27.63;;;;;;;14.81;43.58;103052.81;4965826;28;20063;-84
2022/03/15 11:05:29;;;;;;;32.47;28.98;;;;;;;15.09;43.78;103073.16;4982153;28;20092;-84
2022/03/15 11:07:56;;;;;;;36.63;29.27;;;;;;;15.24;43.57;103039.13;4966217;28;20043;-82
2022/03/15 11:10:23;;;;;;;32.78;27.67;;;;;;;14.90;43.57;102979.94;4968701;28;20071;-82
2022/03/15 11:12:54;;;;;;;34.03;30.45;;;;;;;15.00;42.80;102994.41;4952264;28;20062;-82
2022/03/15 11:15:28;;;;;;;32.25;28.85;;;;;;;15.29;43.19;103034.28;4974951;28;20452;-83
2022/03/15 11:18:02;;;;;;;33.67;29.38;;;;;;;15.39;42.69;103030.03;4976319;28;20369;-81
2022/03/15 11:20:35;;;;;;;33.20;29.38;;;;;;;15.34;43.07;103032.13;4967189;28;20061;-81